Time;durP1;ratioP1;P1;durP2;ratioP2;P2;SDS_P1;SDS_P2;PMS_P1;PMS_P2;Temp;Humidity;BMP_temperature;BMP_pressure;BME280_temperature;BME280_humidity;BME280_pressure;Samples;Min_cycle;Max_cycle;Signal;HPM_P1;HPM_P2
2023/02/03 00:00:40;;;;;;;0.80;0.60;;;;;;;;;;5073047;28;20479;-68
2023/02/03 00:03:07;;;;;;;0.77;0.60;;;;;;;;;;5074307;28;20442;-68
2023/02/03 00:05:36;;;;;;;5.57;1.57;;;;;;;;;;5073546;28;20444;-68
2023/02/03 00:08:03;;;;;;;0.83;0.70;;;;;;;;;;5073990;28;20800;-68
2023/02/03 00:10:30;;;;;;;1.80;1.03;;;;;;;;;;5073183;28;20481;-68
2023/02/03 00:12:57;;;;;;;0.80;0.47;;;;;;;;;;5074122;28;20441;-68
2023/02/03 00:15:25;;;;;;;0.70;0.60;;;;;;;;;;5073738;28;20453;-68
2023/02/03 00:17:52;;;;;;;0.67;0.47;;;;;;;;;;5073927;28;20447;-68
2023/02/03 00:20:20;;;;;;;1.20;0.87;;;;;;;;;;5073648;28;20441;-68
2023/02/03 00:22:48;;;;;;;0.70;0.60;;;;;;;;;;5073842;28;20457;-68
2023/02/03 00:25:15;;;;;;;0.70;0.50;;;;;;;;;;5073759;28;20438;-69
2023/02/03 00:27:42;;;;;;;0.70;0.50;;;;;;;;;;5072988;28;20453;-68
2023/02/03 00:30:10;;;;;;;2.50;0.80;;;;;;;;;;5073272;28;20821;-71
2023/02/03 00:32:37;;;;;;;1.47;0.80;;;;;;;;;;5073114;28;20450;-69
2023/02/03 00:35:05;;;;;;;1.10;0.80;;;;;;;;;;5073476;28;20437;-69
2023/02/03 00:37:32;;;;;;;0.87;0.77;;;;;;;;;;5072968;28;20452;-69
2023/02/03 00:40:00;;;;;;;1.00;0.80;;;;;;;;;;5072655;28;20449;-68
2023/02/03 00:42:27;;;;;;;0.90;0.50;;;;;;;;;;5072594;28;20475;-69
2023/02/03 00:44:54;;;;;;;1.00;0.50;;;;;;;;;;5072827;28;20489;-68
2023/02/03 00:47:22;;;;;;;0.83;0.67;;;;;;;;;;5072410;28;20449;-67
2023/02/03 00:49:49;;;;;;;1.00;0.70;;;;;;;;;;5072506;28;20437;-69
2023/02/03 00:52:16;;;;;;;0.70;0.40;;;;;;;;;;5072556;28;20860;-68
2023/02/03 00:54:43;;;;;;;0.73;0.50;;;;;;;;;;5072449;28;20445;-68
2023/02/03 00:57:11;;;;;;;0.90;0.50;;;;;;;;;;5072932;28;20448;-69
2023/02/03 00:59:39;;;;;;;0.77;0.67;;;;;;;;;;5072030;28;20434;-69
2023/02/03 01:02:06;;;;;;;0.80;0.50;;;;;;;;;;5073034;28;20444;-69
2023/02/03 01:04:33;;;;;;;1.90;0.57;;;;;;;;;;5071267;28;20453;-69
2023/02/03 01:07:00;;;;;;;1.00;0.90;;;;;;;;;;5072991;28;20445;-69
2023/02/03 01:09:27;;;;;;;0.90;0.60;;;;;;;;;;5071433;28;20453;-69
2023/02/03 01:11:54;;;;;;;0.70;0.50;;;;;;;;;;5072749;28;20480;-68
2023/02/03 01:14:23;;;;;;;0.70;0.50;;;;;;;;;;5072662;28;20445;-67
2023/02/03 01:16:50;;;;;;;0.80;0.60;;;;;;;;;;5072964;28;20438;-69
2023/02/03 01:19:17;;;;;;;0.70;0.50;;;;;;;;;;5072268;28;20453;-69
2023/02/03 01:21:45;;;;;;;0.80;0.60;;;;;;;;;;5071875;28;20437;-69
2023/02/03 01:24:13;;;;;;;0.73;0.50;;;;;;;;;;5072334;28;20450;-69
2023/02/03 01:26:41;;;;;;;0.80;0.63;;;;;;;;;;5072012;28;20622;-69
2023/02/03 01:29:08;;;;;;;1.20;0.60;;;;;;;;;;5072021;28;20480;-69
2023/02/03 01:31:38;;;;;;;0.90;0.63;;;;;;;;;;5071753;28;20473;-69
2023/02/03 01:34:06;;;;;;;3.80;0.77;;;;;;;;;;5072465;28;20437;-69
2023/02/03 01:36:34;;;;;;;2.50;0.63;;;;;;;;;;5071796;28;20450;-69
2023/02/03 01:39:01;;;;;;;1.00;0.67;;;;;;;;;;5071715;28;20776;-69
2023/02/03 01:41:30;;;;;;;0.80;0.50;;;;;;;;;;5071954;28;20446;-69
2023/02/03 01:43:58;;;;;;;1.00;0.50;;;;;;;;;;5072009;28;20457;-69
2023/02/03 01:46:28;;;;;;;0.90;0.67;;;;;;;;;;5071527;28;20434;-69
2023/02/03 01:48:57;;;;;;;0.70;0.50;;;;;;;;;;5071403;28;20429;-70
2023/02/03 01:51:24;;;;;;;1.17;1.07;;;;;;;;;;5071447;28;20477;-69
2023/02/03 01:53:52;;;;;;;1.20;0.67;;;;;;;;;;5071918;28;20452;-69
2023/02/03 01:56:20;;;;;;;14.73;0.97;;;;;;;;;;5071629;28;20768;-69
2023/02/03 01:58:47;;;;;;;0.80;0.50;;;;;;;;;;5071555;28;20548;-69
2023/02/03 02:01:15;;;;;;;1.10;0.60;;;;;;;;;;5071279;28;20445;-69
2023/02/03 02:03:43;;;;;;;1.07;0.60;;;;;;;;;;5071023;28;20444;-69
2023/02/03 02:06:12;;;;;;;2.70;0.57;;;;;;;;;;5071541;28;20438;-69
2023/02/03 02:08:40;;;;;;;0.90;0.80;;;;;;;;;;5070726;28;20518;-69
2023/02/03 02:11:08;;;;;;;1.37;0.90;;;;;;;;;;5071548;28;20477;-68
2023/02/03 02:13:36;;;;;;;0.80;0.60;;;;;;;;;;5071392;28;20765;-69
2023/02/03 02:16:07;;;;;;;1.00;0.90;;;;;;;;;;5082663;28;20545;-69
2023/02/03 02:18:45;;;;;;;1.17;0.80;;;;;;;;;;5071311;28;20763;-69
2023/02/03 02:21:23;;;;;;;0.80;0.70;;;;;;;;;;5071606;28;20448;-69
2023/02/03 02:24:09;;;;;;;0.80;0.60;;;;;;;;;;5072428;28;20721;-69
2023/02/03 02:26:51;;;;;;;4.40;1.20;;;;;;;;;;5073590;28;20467;-70
2023/02/03 02:29:39;;;;;;;4.93;0.90;;;;;;;;;;5074164;28;20434;-69
2023/02/03 02:32:10;;;;;;;1.20;0.80;;;;;;;;;;5050719;28;20485;-69
2023/02/03 02:34:46;;;;;;;1.30;0.87;;;;;;;;;;5077781;28;20438;-69
2023/02/03 02:37:19;;;;;;;1.33;0.70;;;;;;;;;;5077792;28;20451;-69
2023/02/03 02:39:47;;;;;;;1.17;0.67;;;;;;;;;;5077480;28;20444;-69
2023/02/03 02:42:16;;;;;;;0.80;0.67;;;;;;;;;;5080180;28;20453;-69
2023/02/03 02:44:46;;;;;;;1.23;0.80;;;;;;;;;;5077448;28;20536;-70
2023/02/03 02:47:17;;;;;;;1.00;0.70;;;;;;;;;;5076726;28;20457;-68
2023/02/03 02:49:47;;;;;;;1.07;0.97;;;;;;;;;;5071172;28;20464;-69
2023/02/03 02:52:16;;;;;;;2.03;1.23;;;;;;;;;;5059404;28;20488;-69
2023/02/03 02:54:45;;;;;;;2.90;0.90;;;;;;;;;;5070110;28;20446;-69
2023/02/03 02:57:14;;;;;;;0.83;0.63;;;;;;;;;;5070712;28;20445;-70
2023/02/03 02:59:41;;;;;;;0.73;0.70;;;;;;;;;;5069671;28;20457;-69
2023/02/03 03:02:09;;;;;;;1.33;0.90;;;;;;;;;;5070005;28;20454;-69
2023/02/03 03:04:38;;;;;;;1.23;0.90;;;;;;;;;;5070017;28;20433;-69
2023/02/03 03:07:07;;;;;;;1.43;0.73;;;;;;;;;;5070584;28;20441;-69
2023/02/03 03:09:37;;;;;;;1.20;0.97;;;;;;;;;;5069576;28;20437;-69
2023/02/03 03:12:08;;;;;;;1.27;0.70;;;;;;;;;;5070127;28;20474;-69
2023/02/03 03:14:36;;;;;;;1.83;0.80;;;;;;;;;;5069808;28;20453;-69
2023/02/03 03:17:06;;;;;;;0.77;0.53;;;;;;;;;;5070587;28;21011;-68
2023/02/03 03:19:35;;;;;;;0.80;0.50;;;;;;;;;;5069271;28;20961;-69
2023/02/03 03:22:05;;;;;;;0.90;0.77;;;;;;;;;;5070174;28;20469;-69
2023/02/03 03:24:34;;;;;;;2.60;0.90;;;;;;;;;;5069582;28;20453;-69
2023/02/03 03:27:04;;;;;;;3.30;0.83;;;;;;;;;;5070902;28;20453;-69
2023/02/03 03:29:34;;;;;;;4.00;1.00;;;;;;;;;;5073790;28;20441;-69
2023/02/03 03:32:01;;;;;;;1.07;0.63;;;;;;;;;;5074291;28;20526;-69
2023/02/03 03:34:29;;;;;;;0.77;0.70;;;;;;;;;;5073551;28;20453;-69
2023/02/03 03:37:01;;;;;;;0.90;0.70;;;;;;;;;;5074581;28;20441;-69
2023/02/03 03:39:33;;;;;;;1.00;0.90;;;;;;;;;;5069719;28;20444;-69
2023/02/03 03:42:03;;;;;;;2.60;0.53;;;;;;;;;;5073940;28;20475;-69
2023/02/03 03:44:33;;;;;;;0.83;0.60;;;;;;;;;;5073866;28;20890;-69
2023/02/03 03:47:05;;;;;;;0.70;0.60;;;;;;;;;;5074185;28;20468;-69
2023/02/03 03:49:34;;;;;;;3.23;0.50;;;;;;;;;;5065996;28;20456;-69
2023/02/03 03:52:03;;;;;;;0.60;0.40;;;;;;;;;;5073677;28;20477;-69
2023/02/03 03:54:33;;;;;;;0.90;0.70;;;;;;;;;;5073165;28;20437;-69
2023/02/03 03:57:01;;;;;;;0.70;0.50;;;;;;;;;;5071325;28;20441;-69
2023/02/03 03:59:31;;;;;;;0.60;0.40;;;;;;;;;;5073216;28;20444;-69
2023/02/03 04:02:03;;;;;;;1.03;0.40;;;;;;;;;;5074211;28;20779;-69
2023/02/03 04:04:30;;;;;;;0.90;0.60;;;;;;;;;;5073663;28;20483;-69
2023/02/03 04:06:58;;;;;;;0.70;0.57;;;;;;;;;;5074176;28;20451;-69
2023/02/03 04:09:25;;;;;;;1.10;0.60;;;;;;;;;;5072789;28;20448;-69
2023/02/03 04:12:04;;;;;;;1.00;0.50;;;;;;;;;;5073399;28;20943;-69
2023/02/03 04:14:32;;;;;;;0.67;0.40;;;;;;;;;;5073281;28;20445;-69
2023/02/03 04:16:59;;;;;;;1.00;0.50;;;;;;;;;;5073902;28;20444;-69
2023/02/03 04:19:26;;;;;;;1.83;0.50;;;;;;;;;;5072832;28;20437;-69
2023/02/03 04:21:53;;;;;;;4.83;1.00;;;;;;;;;;5073486;28;20456;-69
2023/02/03 04:24:21;;;;;;;0.70;0.60;;;;;;;;;;5073329;28;20441;-69
2023/02/03 04:26:48;;;;;;;0.87;0.63;;;;;;;;;;5073785;28;20802;-69
2023/02/03 04:29:16;;;;;;;0.80;0.60;;;;;;;;;;5073259;28;20442;-69
2023/02/03 04:31:43;;;;;;;1.30;0.80;;;;;;;;;;5072592;28;20496;-69
2023/02/03 04:34:10;;;;;;;1.23;0.50;;;;;;;;;;5073282;28;20772;-69
2023/02/03 04:36:37;;;;;;;0.60;0.50;;;;;;;;;;5073141;28;20437;-69
2023/02/03 04:39:05;;;;;;;0.80;0.50;;;;;;;;;;5072688;28;20516;-69
2023/02/03 04:41:32;;;;;;;0.90;0.70;;;;;;;;;;5072981;28;20445;-68
2023/02/03 04:43:59;;;;;;;0.60;0.40;;;;;;;;;;5073181;28;20766;-69
2023/02/03 04:46:27;;;;;;;0.70;0.50;;;;;;;;;;5072959;28;20441;-68
2023/02/03 04:48:54;;;;;;;0.70;0.40;;;;;;;;;;5067883;28;20445;-69
2023/02/03 04:51:21;;;;;;;0.87;0.47;;;;;;;;;;5072653;28;20987;-67
2023/02/03 04:53:49;;;;;;;1.47;0.70;;;;;;;;;;5059685;28;20460;-68
2023/02/03 04:56:16;;;;;;;0.70;0.50;;;;;;;;;;5072945;28;20445;-68
2023/02/03 04:58:43;;;;;;;0.60;0.43;;;;;;;;;;5072100;28;20438;-68
2023/02/03 05:01:10;;;;;;;0.70;0.40;;;;;;;;;;5072586;28;20445;-68
2023/02/03 05:03:39;;;;;;;1.20;0.70;;;;;;;;;;5072292;28;20935;-68
2023/02/03 05:06:06;;;;;;;0.70;0.57;;;;;;;;;;5072927;28;20438;-69
2023/02/03 05:08:33;;;;;;;0.70;0.50;;;;;;;;;;5071925;28;20792;-69
2023/02/03 05:11:00;;;;;;;1.10;0.50;;;;;;;;;;5072670;28;20472;-69
2023/02/03 05:13:27;;;;;;;1.10;0.90;;;;;;;;;;5072377;28;20446;-68
2023/02/03 05:15:54;;;;;;;0.70;0.60;;;;;;;;;;5071787;28;20460;-69
2023/02/03 05:18:22;;;;;;;5.13;0.90;;;;;;;;;;5072736;28;20438;-67
2023/02/03 05:20:50;;;;;;;0.60;0.40;;;;;;;;;;5069654;28;20803;-69
2023/02/03 05:23:17;;;;;;;0.80;0.60;;;;;;;;;;5068738;28;20999;-68
2023/02/03 05:25:45;;;;;;;0.90;0.70;;;;;;;;;;5068892;28;20799;-69
2023/02/03 05:28:12;;;;;;;0.80;0.50;;;;;;;;;;5072704;28;20442;-69
2023/02/03 05:30:39;;;;;;;0.93;0.50;;;;;;;;;;5071019;28;20925;-69
2023/02/03 05:33:06;;;;;;;1.43;0.50;;;;;;;;;;5072618;28;20469;-69
2023/02/03 05:35:33;;;;;;;0.80;0.50;;;;;;;;;;5071913;28;20453;-69
2023/02/03 05:38:02;;;;;;;0.70;0.50;;;;;;;;;;5072424;28;20440;-67
2023/02/03 05:43:14;;;;;;;1.50;0.70;;;;;;;;;;5072115;28;20421;-69
2023/02/03 05:45:41;;;;;;;0.80;0.53;;;;;;;;;;5071519;28;20956;-69
2023/02/03 05:48:08;;;;;;;0.70;0.60;;;;;;;;;;5072275;28;20433;-69
2023/02/03 05:50:35;;;;;;;2.03;0.50;;;;;;;;;;5075139;28;20437;-69
2023/02/03 05:53:05;;;;;;;0.90;0.60;;;;;;;;;;5077544;28;20487;-69
2023/02/03 05:55:32;;;;;;;1.50;0.70;;;;;;;;;;5071404;28;20445;-69
2023/02/03 05:58:00;;;;;;;0.93;0.80;;;;;;;;;;5072108;28;20448;-69
2023/02/03 06:00:27;;;;;;;1.10;0.80;;;;;;;;;;5070903;28;20457;-69
2023/02/03 06:02:55;;;;;;;1.00;0.47;;;;;;;;;;5072248;28;20445;-69
2023/02/03 06:05:23;;;;;;;1.10;0.80;;;;;;;;;;5071839;28;20525;-68
2023/02/03 06:07:50;;;;;;;3.60;0.77;;;;;;;;;;5072034;28;20917;-69
2023/02/03 06:10:19;;;;;;;1.90;0.80;;;;;;;;;;5061021;28;20442;-69
2023/02/03 06:12:47;;;;;;;2.50;0.87;;;;;;;;;;5071723;28;20526;-69
2023/02/03 06:15:14;;;;;;;0.77;0.60;;;;;;;;;;5071059;28;20449;-68
2023/02/03 06:17:44;;;;;;;0.90;0.90;;;;;;;;;;5069777;28;20693;-69
2023/02/03 06:20:12;;;;;;;1.93;0.77;;;;;;;;;;5072081;28;20445;-69
2023/02/03 06:22:39;;;;;;;1.00;0.60;;;;;;;;;;5071251;28;20445;-70
2023/02/03 06:25:07;;;;;;;0.70;0.50;;;;;;;;;;5071707;28;20475;-73
2023/02/03 06:27:35;;;;;;;0.70;0.60;;;;;;;;;;5071218;28;20445;-69
2023/02/03 06:30:02;;;;;;;0.90;0.80;;;;;;;;;;5071853;28;20437;-69
2023/02/03 06:32:30;;;;;;;0.90;0.67;;;;;;;;;;5071081;28;20481;-69
2023/02/03 06:34:57;;;;;;;0.83;0.70;;;;;;;;;;5071487;28;20453;-69
2023/02/03 06:37:24;;;;;;;0.90;0.70;;;;;;;;;;5071153;28;20437;-68
2023/02/03 06:39:51;;;;;;;0.70;0.60;;;;;;;;;;5071215;28;20430;-72
2023/02/03 06:42:18;;;;;;;2.40;0.60;;;;;;;;;;5071607;28;20944;-69
2023/02/03 06:44:46;;;;;;;1.00;0.60;;;;;;;;;;5069481;28;20552;-72
2023/02/03 06:47:13;;;;;;;1.43;1.00;;;;;;;;;;5071648;28;20449;-72
2023/02/03 06:49:41;;;;;;;1.27;0.80;;;;;;;;;;5070274;28;20442;-69
2023/02/03 06:52:08;;;;;;;1.03;0.63;;;;;;;;;;5070722;28;20488;-68
2023/02/03 06:54:35;;;;;;;1.07;0.83;;;;;;;;;;5069868;28;20929;-72
2023/02/03 06:57:03;;;;;;;2.70;1.33;;;;;;;;;;5072321;28;20445;-72
2023/02/03 06:59:30;;;;;;;3.13;0.90;;;;;;;;;;5069244;28;20449;-71
2023/02/03 07:01:58;;;;;;;0.80;0.53;;;;;;;;;;5070587;28;20457;-71
2023/02/03 07:04:27;;;;;;;0.87;0.67;;;;;;;;;;5070676;28;20445;-71
2023/02/03 07:06:54;;;;;;;0.90;0.60;;;;;;;;;;5070654;28;20449;-71
2023/02/03 07:09:21;;;;;;;0.60;0.40;;;;;;;;;;5069388;28;20442;-68
2023/02/03 07:11:48;;;;;;;1.53;0.70;;;;;;;;;;5069698;28;20480;-73
2023/02/03 07:14:15;;;;;;;0.83;0.73;;;;;;;;;;5070921;28;20450;-72
2023/02/03 07:16:43;;;;;;;2.00;1.00;;;;;;;;;;5069981;28;20458;-71
2023/02/03 07:19:11;;;;;;;0.80;0.60;;;;;;;;;;5069180;28;20437;-71
2023/02/03 07:21:38;;;;;;;1.83;1.10;;;;;;;;;;5069668;28;20434;-71
2023/02/03 07:24:05;;;;;;;2.50;2.00;;;;;;;;;;5068602;28;20465;-71
2023/02/03 07:26:33;;;;;;;1.10;0.70;;;;;;;;;;5070788;28;20449;-71
2023/02/03 07:29:00;;;;;;;1.13;0.70;;;;;;;;;;5070025;28;20471;-71
2023/02/03 07:31:27;;;;;;;1.00;0.90;;;;;;;;;;5068758;28;20448;-71
2023/02/03 07:33:55;;;;;;;1.40;1.30;;;;;;;;;;5070008;28;20474;-71
2023/02/03 07:36:24;;;;;;;1.10;0.73;;;;;;;;;;5070138;28;20446;-69
2023/02/03 07:38:51;;;;;;;0.70;0.60;;;;;;;;;;5069661;28;20503;-71
2023/02/03 07:41:18;;;;;;;2.60;1.40;;;;;;;;;;5070052;28;20449;-72
2023/02/03 07:43:45;;;;;;;1.37;1.27;;;;;;;;;;5070166;28;20449;-72
2023/02/03 07:46:12;;;;;;;0.93;0.80;;;;;;;;;;5069850;28;20526;-71
2023/02/03 07:48:39;;;;;;;1.23;0.67;;;;;;;;;;5069542;28;20446;-71
2023/02/03 07:51:06;;;;;;;2.20;0.97;;;;;;;;;;5070550;28;20444;-72
2023/02/03 07:53:35;;;;;;;1.20;0.80;;;;;;;;;;5069552;28;20477;-72
2023/02/03 07:56:02;;;;;;;1.00;0.80;;;;;;;;;;5070861;28;20947;-72
2023/02/03 07:58:30;;;;;;;2.57;1.20;;;;;;;;;;5070183;28;20792;-71
2023/02/03 08:00:57;;;;;;;1.57;1.13;;;;;;;;;;5069805;28;20443;-71
2023/02/03 08:03:24;;;;;;;1.37;0.70;;;;;;;;;;5069465;28;20437;-72
2023/02/03 08:05:52;;;;;;;3.23;1.10;;;;;;;;;;5070347;28;20441;-71
2023/02/03 08:08:19;;;;;;;3.03;1.43;;;;;;;;;;5072901;28;20449;-74
2023/02/03 08:10:47;;;;;;;3.03;1.20;;;;;;;;;;5073340;28;20433;-71
2023/02/03 08:13:14;;;;;;;1.30;0.70;;;;;;;;;;5066573;28;20495;-71
2023/02/03 08:15:42;;;;;;;0.80;0.50;;;;;;;;;;5081888;28;20458;-71
2023/02/03 08:18:11;;;;;;;1.00;0.80;;;;;;;;;;5083864;28;20449;-72
2023/02/03 08:20:38;;;;;;;1.37;1.17;;;;;;;;;;5083088;28;20528;-71
2023/02/03 08:23:05;;;;;;;1.33;0.70;;;;;;;;;;5084588;28;20457;-72
2023/02/03 08:25:32;;;;;;;1.17;0.93;;;;;;;;;;5083954;28;20444;-72
2023/02/03 08:28:01;;;;;;;3.23;1.33;;;;;;;;;;5085499;28;20478;-72
2023/02/03 08:30:28;;;;;;;6.60;1.07;;;;;;;;;;5085038;28;20438;-72
2023/02/03 08:32:55;;;;;;;1.40;0.80;;;;;;;;;;5087550;28;20533;-70
2023/02/03 08:35:22;;;;;;;1.47;0.70;;;;;;;;;;5084529;28;21012;-71
2023/02/03 08:37:50;;;;;;;1.70;1.00;;;;;;;;;;5075773;28;20445;-72
2023/02/03 08:40:17;;;;;;;1.20;0.90;;;;;;;;;;5070892;28;20457;-71
2023/02/03 08:42:44;;;;;;;1.37;0.90;;;;;;;;;;5072819;28;20452;-72
2023/02/03 08:45:13;;;;;;;1.60;0.83;;;;;;;;;;5074255;28;20473;-71
2023/02/03 08:47:40;;;;;;;1.20;0.93;;;;;;;;;;5067554;28;21979;-71
2023/02/03 08:50:08;;;;;;;2.30;0.80;;;;;;;;;;5072790;28;20450;-71
2023/02/03 08:52:35;;;;;;;2.10;0.97;;;;;;;;;;5072650;28;20560;-72
2023/02/03 08:55:02;;;;;;;1.53;0.87;;;;;;;;;;5073353;28;20445;-72
2023/02/03 08:57:32;;;;;;;2.90;1.23;;;;;;;;;;5072808;28;20452;-71
2023/02/03 08:59:59;;;;;;;5.70;1.03;;;;;;;;;;5072598;28;20456;-71
2023/02/03 09:02:27;;;;;;;1.43;1.03;;;;;;;;;;5072803;28;20444;-71
2023/02/03 09:04:55;;;;;;;3.20;0.90;;;;;;;;;;5073362;28;20444;-71
2023/02/03 09:07:22;;;;;;;1.63;1.40;;;;;;;;;;5072129;28;20484;-69
2023/02/03 09:09:49;;;;;;;3.73;1.23;;;;;;;;;;5070970;28;20449;-72
2023/02/03 09:12:16;;;;;;;1.57;1.00;;;;;;;;;;5072629;28;20448;-71
2023/02/03 09:14:43;;;;;;;2.20;1.33;;;;;;;;;;5071856;28;20921;-72
2023/02/03 09:17:11;;;;;;;2.60;1.00;;;;;;;;;;5072330;28;20441;-72
2023/02/03 09:19:39;;;;;;;1.77;0.90;;;;;;;;;;5071986;28;20435;-72
2023/02/03 09:22:06;;;;;;;1.20;1.10;;;;;;;;;;5062634;28;20925;-72
2023/02/03 09:24:34;;;;;;;3.93;2.10;;;;;;;;;;5071370;28;20516;-72
2023/02/03 09:27:01;;;;;;;1.30;0.90;;;;;;;;;;5072642;28;20445;-72
2023/02/03 09:29:28;;;;;;;1.57;0.77;;;;;;;;;;5070952;28;20437;-72
2023/02/03 09:31:55;;;;;;;1.27;1.17;;;;;;;;;;5068996;28;20446;-72
2023/02/03 09:34:23;;;;;;;1.50;0.90;;;;;;;;;;5072277;28;20546;-72
2023/02/03 09:36:51;;;;;;;1.27;0.90;;;;;;;;;;5072247;28;20445;-72
2023/02/03 09:39:18;;;;;;;1.93;0.87;;;;;;;;;;5071780;28;20955;-72
2023/02/03 09:42:07;;;;;;;1.13;1.00;;;;;;;;;;5070628;28;20917;-72
2023/02/03 09:44:37;;;;;;;5.83;1.10;;;;;;;;;;5071079;28;20481;-72
2023/02/03 09:47:10;;;;;;;1.50;1.10;;;;;;;;;;5072152;28;20449;-72
2023/02/03 09:49:39;;;;;;;3.87;0.80;;;;;;;;;;5071612;28;20438;-72
2023/02/03 09:52:10;;;;;;;2.20;1.10;;;;;;;;;;5072746;28;20437;-72
2023/02/03 09:54:42;;;;;;;1.40;1.10;;;;;;;;;;5071450;28;20461;-71
2023/02/03 09:57:14;;;;;;;0.80;0.50;;;;;;;;;;5071756;28;20437;-72
2023/02/03 09:59:41;;;;;;;0.80;0.60;;;;;;;;;;5071290;28;20472;-72
2023/02/03 10:02:16;;;;;;;3.10;1.33;;;;;;;;;;5072115;28;20452;-72
2023/02/03 10:04:48;;;;;;;2.33;1.00;;;;;;;;;;5071268;28;20441;-72
2023/02/03 10:07:24;;;;;;;1.87;0.83;;;;;;;;;;5071878;28;20805;-72
2023/02/03 10:09:57;;;;;;;1.30;1.10;;;;;;;;;;5068503;28;20445;-72
2023/02/03 10:12:48;;;;;;;2.97;0.97;;;;;;;;;;5066929;28;20448;-72
2023/02/03 10:15:37;;;;;;;1.60;0.70;;;;;;;;;;5070168;28;20453;-72
2023/02/03 10:18:07;;;;;;;1.33;0.70;;;;;;;;;;5065649;28;20766;-72
2023/02/03 10:20:36;;;;;;;1.37;0.83;;;;;;;;;;5070050;28;20797;-73
2023/02/03 10:23:07;;;;;;;0.90;0.60;;;;;;;;;;5071540;28;20567;-72
2023/02/03 10:25:36;;;;;;;0.80;0.70;;;;;;;;;;5069881;28;20483;-73
2023/02/03 10:28:05;;;;;;;1.40;0.80;;;;;;;;;;5071381;28;20445;-72
2023/02/03 10:30:34;;;;;;;3.60;1.17;;;;;;;;;;5069913;28;20443;-72
2023/02/03 10:33:09;;;;;;;0.90;0.80;;;;;;;;;;5070392;28;20473;-73
2023/02/03 10:35:38;;;;;;;1.13;0.70;;;;;;;;;;5070839;28;20795;-73
2023/02/03 10:38:09;;;;;;;1.10;0.70;;;;;;;;;;5071681;28;20455;-72
2023/02/03 10:40:37;;;;;;;2.30;1.00;;;;;;;;;;5069797;28;20445;-72
2023/02/03 10:45:49;;;;;;;0.83;0.53;;;;;;;;;;5070318;28;20464;-73
2023/02/03 10:48:18;;;;;;;1.53;1.00;;;;;;;;;;5071081;28;20454;-72
2023/02/03 10:50:48;;;;;;;1.30;0.80;;;;;;;;;;5059983;28;20434;-72
2023/02/03 10:53:25;;;;;;;3.93;1.10;;;;;;;;;;5070533;28;20896;-73
2023/02/03 10:56:00;;;;;;;1.03;0.60;;;;;;;;;;5070567;28;20862;-72
2023/02/03 10:58:29;;;;;;;1.10;0.60;;;;;;;;;;5070796;28;20449;-72
2023/02/03 11:00:56;;;;;;;1.70;1.20;;;;;;;;;;5070592;28;20465;-72
2023/02/03 11:03:25;;;;;;;1.37;0.80;;;;;;;;;;5070570;28;20445;-72
2023/02/03 11:06:04;;;;;;;1.10;0.80;;;;;;;;;;5070307;28;20921;-72
2023/02/03 11:08:34;;;;;;;1.27;0.60;;;;;;;;;;5057734;28;20551;-73
2023/02/03 11:11:05;;;;;;;1.00;0.50;;;;;;;;;;5070075;28;20529;-72
2023/02/03 11:13:32;;;;;;;2.23;0.70;;;;;;;;;;5069950;28;20817;-72
2023/02/03 11:16:01;;;;;;;1.23;0.97;;;;;;;;;;5071027;28;20449;-72
2023/02/03 11:18:36;;;;;;;1.87;0.73;;;;;;;;;;5070257;28;20456;-72
2023/02/03 11:21:07;;;;;;;0.83;0.50;;;;;;;;;;5070492;28;20837;-73
2023/02/03 11:23:35;;;;;;;1.53;0.90;;;;;;;;;;5062508;28;20448;-72
2023/02/03 11:26:11;;;;;;;2.43;0.70;;;;;;;;;;5070991;28;20437;-72
2023/02/03 11:28:41;;;;;;;0.70;0.40;;;;;;;;;;5070267;28;20441;-72
2023/02/03 11:31:16;;;;;;;1.30;0.60;;;;;;;;;;5061626;28;20532;-72
2023/02/03 11:33:47;;;;;;;1.10;0.50;;;;;;;;;;5070410;28;20465;-72
2023/02/03 11:36:14;;;;;;;0.60;0.40;;;;;;;;;;5070020;28;20917;-72
2023/02/03 11:38:43;;;;;;;0.80;0.57;;;;;;;;;;5070039;28;20735;-71
2023/02/03 11:41:16;;;;;;;0.90;0.50;;;;;;;;;;5070346;28;20475;-72
2023/02/03 11:43:43;;;;;;;0.60;0.40;;;;;;;;;;5069970;28;20460;-73
2023/02/03 11:46:10;;;;;;;0.70;0.50;;;;;;;;;;5069500;28;20485;-72
2023/02/03 11:48:39;;;;;;;1.53;0.77;;;;;;;;;;5071940;28;20441;-72
2023/02/03 11:51:14;;;;;;;0.70;0.50;;;;;;;;;;5073895;28;20441;-72
2023/02/03 11:53:46;;;;;;;0.97;0.50;;;;;;;;;;5074243;28;21227;-72
2023/02/03 11:56:20;;;;;;;0.83;0.50;;;;;;;;;;5074140;28;20441;-72
2023/02/03 11:58:58;;;;;;;1.00;0.80;;;;;;;;;;5074371;28;20437;-72
2023/02/03 12:01:33;;;;;;;1.73;0.60;;;;;;;;;;5073522;28;20467;-72
2023/02/03 12:04:08;;;;;;;0.60;0.40;;;;;;;;;;5074677;28;20455;-72
2023/02/03 12:06:51;;;;;;;1.10;0.80;;;;;;;;;;5073706;28;20869;-73
2023/02/03 12:09:24;;;;;;;0.80;0.50;;;;;;;;;;5074250;28;20439;-72
2023/02/03 12:12:11;;;;;;;1.43;0.60;;;;;;;;;;5074237;28;20441;-72
2023/02/03 12:14:48;;;;;;;0.67;0.50;;;;;;;;;;5073483;28;20823;-71
2023/02/03 12:17:24;;;;;;;1.00;0.53;;;;;;;;;;5073622;28;20486;-72
2023/02/03 12:19:59;;;;;;;0.70;0.50;;;;;;;;;;5070525;28;20437;-72
2023/02/03 12:22:29;;;;;;;1.10;0.53;;;;;;;;;;5071215;28;20498;-72
2023/02/03 12:25:01;;;;;;;0.70;0.50;;;;;;;;;;5073937;28;20444;-72
2023/02/03 12:27:35;;;;;;;0.70;0.50;;;;;;;;;;5073026;28;20912;-72
2023/02/03 12:30:04;;;;;;;0.63;0.43;;;;;;;;;;5073194;28;20440;-72
2023/02/03 12:32:35;;;;;;;0.70;0.40;;;;;;;;;;5071981;28;20453;-72
2023/02/03 12:35:06;;;;;;;0.80;0.60;;;;;;;;;;5073974;28;20473;-72
2023/02/03 12:37:44;;;;;;;0.90;0.40;;;;;;;;;;5060114;28;20904;-72
2023/02/03 12:40:17;;;;;;;0.70;0.40;;;;;;;;;;5072932;28;20447;-73
2023/02/03 12:42:47;;;;;;;0.70;0.40;;;;;;;;;;5072915;28;20451;-72
2023/02/03 12:45:18;;;;;;;0.83;0.50;;;;;;;;;;5072849;28;20473;-73
2023/02/03 12:47:46;;;;;;;1.00;0.40;;;;;;;;;;5073371;28;20444;-73
2023/02/03 12:50:16;;;;;;;1.30;0.70;;;;;;;;;;5072914;28;20790;-76
2023/02/03 12:52:45;;;;;;;1.27;0.60;;;;;;;;;;5072308;28;20476;-69
2023/02/03 12:55:21;;;;;;;0.80;0.50;;;;;;;;;;5071150;28;20496;-70
2023/02/03 12:57:53;;;;;;;0.83;0.40;;;;;;;;;;5073883;28;20445;-69
2023/02/03 13:00:26;;;;;;;1.27;0.50;;;;;;;;;;5072013;28;20804;-70
2023/02/03 13:03:00;;;;;;;1.00;0.60;;;;;;;;;;5073117;28;20445;-69
2023/02/03 13:05:30;;;;;;;0.60;0.40;;;;;;;;;;5072296;28;20469;-69
2023/02/03 13:08:00;;;;;;;0.70;0.50;;;;;;;;;;5073126;28;20437;-70
2023/02/03 13:10:32;;;;;;;0.60;0.40;;;;;;;;;;5071972;28;20468;-69
2023/02/03 13:12:59;;;;;;;0.90;0.50;;;;;;;;;;5072810;28;20449;-70
2023/02/03 13:15:29;;;;;;;1.27;0.70;;;;;;;;;;5071813;28;20507;-69
2023/02/03 13:17:58;;;;;;;1.03;0.50;;;;;;;;;;5072345;28;20442;-69
2023/02/03 13:20:27;;;;;;;0.80;0.50;;;;;;;;;;5071507;28;20442;-69
2023/02/03 13:22:55;;;;;;;0.90;0.53;;;;;;;;;;5071546;28;20780;-69
2023/02/03 13:25:24;;;;;;;0.77;0.50;;;;;;;;;;5071692;28;20450;-69
2023/02/03 13:27:56;;;;;;;1.50;0.60;;;;;;;;;;5068899;28;20441;-69
2023/02/03 13:30:31;;;;;;;1.30;0.50;;;;;;;;;;5070964;28;20526;-69
2023/02/03 13:33:09;;;;;;;1.03;0.67;;;;;;;;;;5072103;28;20921;-69
2023/02/03 13:35:44;;;;;;;0.80;0.57;;;;;;;;;;5071157;28;20481;-69
2023/02/03 13:38:29;;;;;;;0.70;0.50;;;;;;;;;;5072557;28;21150;-69
2023/02/03 13:41:00;;;;;;;0.60;0.40;;;;;;;;;;5064793;28;20449;-69
2023/02/03 13:43:30;;;;;;;1.10;0.50;;;;;;;;;;5071193;28;20449;-69
2023/02/03 13:45:58;;;;;;;0.70;0.43;;;;;;;;;;5070982;28;20484;-70
2023/02/03 13:48:26;;;;;;;0.60;0.40;;;;;;;;;;5071148;28;20548;-69
2023/02/03 13:51:03;;;;;;;0.70;0.43;;;;;;;;;;5070920;28;20449;-69
2023/02/03 13:53:34;;;;;;;1.00;0.83;;;;;;;;;;5071331;28;20446;-69
2023/02/03 13:56:02;;;;;;;1.33;0.73;;;;;;;;;;5072038;28;20480;-69
2023/02/03 13:58:31;;;;;;;0.90;0.50;;;;;;;;;;5069583;28;20516;-68
2023/02/03 14:01:03;;;;;;;0.80;0.50;;;;;;;;;;5070759;28;20515;-69
2023/02/03 14:03:43;;;;;;;0.70;0.60;;;;;;;;;;5071484;28;20437;-69
2023/02/03 14:06:31;;;;;;;0.70;0.40;;;;;;;;;;5071233;28;20937;-69
2023/02/03 14:08:59;;;;;;;0.70;0.50;;;;;;;;;;5063690;28;20901;-69
2023/02/03 14:11:40;;;;;;;0.70;0.50;;;;;;;;;;5070332;28;20446;-69
2023/02/03 14:14:25;;;;;;;1.10;0.53;;;;;;;;;;5070614;28;20477;-69
2023/02/03 14:16:55;;;;;;;0.90;0.60;;;;;;;;;;5069134;28;20449;-69
2023/02/03 14:19:37;;;;;;;0.70;0.50;;;;;;;;;;5070261;28;20445;-68
2023/02/03 14:22:05;;;;;;;0.70;0.50;;;;;;;;;;5058450;28;20452;-69
2023/02/03 14:24:34;;;;;;;0.70;0.50;;;6.70;1.00;;;;;;5070988;28;20447;-69
2023/02/03 14:27:02;;;;;;;0.67;0.50;;;;;;;;;;5071636;28;20456;-69
2023/02/03 14:29:31;;;;;;;0.70;0.50;;;;;;;;;;5070937;28;20457;-76
2023/02/03 14:32:01;;;;;;;1.13;0.63;;;;;;;;;;5070961;28;20461;-68
2023/02/03 14:34:33;;;;;;;0.70;0.40;;;;;;;;;;5070422;28;20477;-68
2023/02/03 14:37:10;;;;;;;0.80;0.50;;;;;;;;;;5070150;28;20441;-68
2023/02/03 14:40:10;;;;;;;0.70;0.50;;;8.90;99.90;;;;;;5069823;28;20805;-69
2023/02/03 14:42:54;;;;;;;1.00;0.50;;;8.80;99.90;;;;;;5055096;28;20479;-69
2023/02/03 14:45:34;;;;;;;0.70;0.50;;;8.80;99.90;;;;;;5068735;28;20536;-69
2023/02/03 14:48:16;;;;;;;0.93;0.50;;;8.80;99.90;;;;;;5071424;28;20442;-69
2023/02/03 14:50:53;;;;;;;1.10;0.50;;;;;;;;;;5070482;28;20437;-70
2023/02/03 14:53:35;;;;;;;0.70;0.50;;;;;;;;;;5069879;28;20503;-69
2023/02/03 14:56:11;;;;;;;0.70;0.50;;;;;;;;;;5061751;28;20473;-69
2023/02/03 14:58:43;;;;;;;0.70;0.40;;;;;;;;;;5070049;28;20532;-69
2023/02/03 15:01:23;;;;;;;0.83;0.40;;;8.80;99.90;;;;;;5070428;28;20445;-69